sensor_id;sensor_type;location;lat;lon;timestamp;P1;durP1;ratioP1;P2;durP2;ratioP2
32705;SDS011;19094;50.972;3.538;2022-07-05T00:02:25;11.63;;;4.53;;
32705;SDS011;19094;50.972;3.538;2022-07-05T00:04:51;10.52;;;3.63;;
32705;SDS011;19094;50.972;3.538;2022-07-05T00:07:17;10.80;;;3.50;;
32705;SDS011;19094;50.972;3.538;2022-07-05T00:09:52;9.80;;;3.63;;
32705;SDS011;19094;50.972;3.538;2022-07-05T00:12:24;7.80;;;3.63;;
32705;SDS011;19094;50.972;3.538;2022-07-05T00:14:51;9.05;;;4.00;;
32705;SDS011;19094;50.972;3.538;2022-07-05T00:17:17;9.40;;;4.13;;
32705;SDS011;19094;50.972;3.538;2022-07-05T00:19:44;6.80;;;4.15;;
32705;SDS011;19094;50.972;3.538;2022-07-05T00:22:10;7.93;;;4.00;;
32705;SDS011;19094;50.972;3.538;2022-07-05T00:24:36;7.60;;;4.00;;
32705;SDS011;19094;50.972;3.538;2022-07-05T00:27:03;6.25;;;3.70;;
32705;SDS011;19094;50.972;3.538;2022-07-05T00:29:29;9.57;;;3.80;;
32705;SDS011;19094;50.972;3.538;2022-07-05T00:31:56;6.15;;;3.65;;
32705;SDS011;19094;50.972;3.538;2022-07-05T00:34:22;7.35;;;4.10;;
32705;SDS011;19094;50.972;3.538;2022-07-05T00:36:48;7.35;;;4.07;;
32705;SDS011;19094;50.972;3.538;2022-07-05T00:39:15;10.50;;;4.90;;
32705;SDS011;19094;50.972;3.538;2022-07-05T00:41:42;9.18;;;4.60;;
32705;SDS011;19094;50.972;3.538;2022-07-05T00:44:09;9.60;;;4.50;;
32705;SDS011;19094;50.972;3.538;2022-07-05T00:46:36;11.57;;;4.80;;
32705;SDS011;19094;50.972;3.538;2022-07-05T00:49:03;12.32;;;4.57;;
32705;SDS011;19094;50.972;3.538;2022-07-05T00:51:31;10.05;;;4.85;;
32705;SDS011;19094;50.972;3.538;2022-07-05T00:53:59;8.85;;;3.92;;
32705;SDS011;19094;50.972;3.538;2022-07-05T00:56:26;10.75;;;4.30;;
32705;SDS011;19094;50.972;3.538;2022-07-05T00:58:53;12.45;;;4.95;;
32705;SDS011;19094;50.972;3.538;2022-07-05T01:01:19;11.05;;;4.65;;
32705;SDS011;19094;50.972;3.538;2022-07-05T01:03:46;8.77;;;4.18;;
32705;SDS011;19094;50.972;3.538;2022-07-05T01:06:16;12.73;;;4.20;;
32705;SDS011;19094;50.972;3.538;2022-07-05T01:08:42;11.45;;;4.68;;
32705;SDS011;19094;50.972;3.538;2022-07-05T01:11:12;10.02;;;4.20;;
32705;SDS011;19094;50.972;3.538;2022-07-05T01:13:39;8.43;;;4.32;;
32705;SDS011;19094;50.972;3.538;2022-07-05T01:16:06;7.82;;;4.40;;
32705;SDS011;19094;50.972;3.538;2022-07-05T01:18:32;8.98;;;4.50;;
32705;SDS011;19094;50.972;3.538;2022-07-05T01:20:59;10.10;;;4.72;;
32705;SDS011;19094;50.972;3.538;2022-07-05T01:23:27;14.20;;;4.40;;
32705;SDS011;19094;50.972;3.538;2022-07-05T01:25:54;10.32;;;4.35;;
32705;SDS011;19094;50.972;3.538;2022-07-05T01:28:23;6.72;;;3.95;;
32705;SDS011;19094;50.972;3.538;2022-07-05T01:30:51;8.85;;;4.72;;
32705;SDS011;19094;50.972;3.538;2022-07-05T01:33:16;8.68;;;4.47;;
32705;SDS011;19094;50.972;3.538;2022-07-05T01:35:43;12.40;;;4.78;;
32705;SDS011;19094;50.972;3.538;2022-07-05T01:38:10;9.85;;;4.55;;
32705;SDS011;19094;50.972;3.538;2022-07-05T01:40:37;8.45;;;4.88;;
32705;SDS011;19094;50.972;3.538;2022-07-05T01:43:03;9.00;;;4.65;;
32705;SDS011;19094;50.972;3.538;2022-07-05T01:45:29;9.55;;;4.95;;
32705;SDS011;19094;50.972;3.538;2022-07-05T01:48:13;18.77;;;5.18;;
32705;SDS011;19094;50.972;3.538;2022-07-05T01:53:30;11.23;;;4.47;;
32705;SDS011;19094;50.972;3.538;2022-07-05T01:55:58;12.95;;;4.85;;
32705;SDS011;19094;50.972;3.538;2022-07-05T01:58:26;10.23;;;4.47;;
32705;SDS011;19094;50.972;3.538;2022-07-05T02:00:55;18.20;;;5.28;;
32705;SDS011;19094;50.972;3.538;2022-07-05T02:03:21;10.88;;;4.68;;
32705;SDS011;19094;50.972;3.538;2022-07-05T02:05:49;11.23;;;4.70;;
32705;SDS011;19094;50.972;3.538;2022-07-05T02:08:15;10.55;;;4.43;;
32705;SDS011;19094;50.972;3.538;2022-07-05T02:10:44;8.80;;;4.32;;
32705;SDS011;19094;50.972;3.538;2022-07-05T02:13:12;12.55;;;4.60;;
32705;SDS011;19094;50.972;3.538;2022-07-05T02:15:39;13.88;;;4.78;;
32705;SDS011;19094;50.972;3.538;2022-07-05T02:18:06;10.60;;;4.50;;
32705;SDS011;19094;50.972;3.538;2022-07-05T02:20:33;15.30;;;5.03;;
32705;SDS011;19094;50.972;3.538;2022-07-05T02:22:59;13.43;;;5.60;;
32705;SDS011;19094;50.972;3.538;2022-07-05T02:25:26;8.88;;;4.57;;
32705;SDS011;19094;50.972;3.538;2022-07-05T02:27:53;8.88;;;5.10;;
32705;SDS011;19094;50.972;3.538;2022-07-05T02:30:19;10.02;;;5.30;;
32705;SDS011;19094;50.972;3.538;2022-07-05T02:32:45;10.75;;;5.47;;
32705;SDS011;19094;50.972;3.538;2022-07-05T02:35:11;10.32;;;5.28;;
32705;SDS011;19094;50.972;3.538;2022-07-05T02:37:38;9.82;;;5.28;;
32705;SDS011;19094;50.972;3.538;2022-07-05T02:40:08;14.43;;;5.68;;
32705;SDS011;19094;50.972;3.538;2022-07-05T02:42:35;14.02;;;5.60;;
32705;SDS011;19094;50.972;3.538;2022-07-05T02:45:04;14.27;;;6.05;;
32705;SDS011;19094;50.972;3.538;2022-07-05T02:47:31;10.98;;;5.50;;
32705;SDS011;19094;50.972;3.538;2022-07-05T02:50:02;9.85;;;5.53;;
32705;SDS011;19094;50.972;3.538;2022-07-05T02:52:29;20.13;;;5.95;;
32705;SDS011;19094;50.972;3.538;2022-07-05T02:54:57;13.00;;;5.30;;
32705;SDS011;19094;50.972;3.538;2022-07-05T02:57:23;11.55;;;5.70;;
32705;SDS011;19094;50.972;3.538;2022-07-05T02:59:49;13.95;;;5.88;;
32705;SDS011;19094;50.972;3.538;2022-07-05T03:02:17;11.95;;;5.72;;
32705;SDS011;19094;50.972;3.538;2022-07-05T03:04:44;16.75;;;6.55;;
32705;SDS011;19094;50.972;3.538;2022-07-05T03:07:10;11.75;;;6.10;;
32705;SDS011;19094;50.972;3.538;2022-07-05T03:09:36;18.33;;;5.25;;
32705;SDS011;19094;50.972;3.538;2022-07-05T03:12:01;12.93;;;5.43;;
32705;SDS011;19094;50.972;3.538;2022-07-05T03:14:28;16.15;;;5.70;;
32705;SDS011;19094;50.972;3.538;2022-07-05T03:16:55;13.70;;;5.15;;
32705;SDS011;19094;50.972;3.538;2022-07-05T03:19:22;14.05;;;5.07;;
32705;SDS011;19094;50.972;3.538;2022-07-05T03:21:49;18.90;;;5.22;;
32705;SDS011;19094;50.972;3.538;2022-07-05T03:24:15;12.50;;;5.25;;
32705;SDS011;19094;50.972;3.538;2022-07-05T03:26:42;20.90;;;5.05;;
32705;SDS011;19094;50.972;3.538;2022-07-05T03:29:09;12.07;;;4.82;;
32705;SDS011;19094;50.972;3.538;2022-07-05T03:31:36;8.70;;;4.55;;
32705;SDS011;19094;50.972;3.538;2022-07-05T03:34:01;15.27;;;5.40;;
32705;SDS011;19094;50.972;3.538;2022-07-05T03:36:27;13.00;;;4.95;;
32705;SDS011;19094;50.972;3.538;2022-07-05T03:38:54;13.55;;;5.38;;
32705;SDS011;19094;50.972;3.538;2022-07-05T03:41:21;13.43;;;5.22;;
32705;SDS011;19094;50.972;3.538;2022-07-05T03:43:48;14.50;;;5.30;;
32705;SDS011;19094;50.972;3.538;2022-07-05T03:46:13;13.63;;;4.55;;
32705;SDS011;19094;50.972;3.538;2022-07-05T03:48:39;8.25;;;4.35;;
32705;SDS011;19094;50.972;3.538;2022-07-05T03:51:05;13.70;;;5.20;;
32705;SDS011;19094;50.972;3.538;2022-07-05T03:53:31;8.13;;;4.35;;
32705;SDS011;19094;50.972;3.538;2022-07-05T03:55:57;15.82;;;4.90;;
32705;SDS011;19094;50.972;3.538;2022-07-05T03:58:23;19.20;;;5.32;;
32705;SDS011;19094;50.972;3.538;2022-07-05T04:00:49;18.50;;;5.47;;
32705;SDS011;19094;50.972;3.538;2022-07-05T04:03:14;14.93;;;4.93;;
32705;SDS011;19094;50.972;3.538;2022-07-05T04:05:40;14.25;;;5.55;;
32705;SDS011;19094;50.972;3.538;2022-07-05T04:08:06;15.35;;;5.60;;
32705;SDS011;19094;50.972;3.538;2022-07-05T04:10:32;10.57;;;5.35;;
32705;SDS011;19094;50.972;3.538;2022-07-05T04:12:58;15.25;;;5.60;;
32705;SDS011;19094;50.972;3.538;2022-07-05T04:15:23;17.52;;;5.82;;
32705;SDS011;19094;50.972;3.538;2022-07-05T04:17:50;14.90;;;6.60;;
32705;SDS011;19094;50.972;3.538;2022-07-05T04:20:19;14.73;;;5.55;;
32705;SDS011;19094;50.972;3.538;2022-07-05T04:22:46;15.65;;;5.93;;
32705;SDS011;19094;50.972;3.538;2022-07-05T04:25:13;17.10;;;6.10;;
32705;SDS011;19094;50.972;3.538;2022-07-05T04:27:42;16.83;;;5.75;;
32705;SDS011;19094;50.972;3.538;2022-07-05T04:30:09;13.43;;;6.03;;
32705;SDS011;19094;50.972;3.538;2022-07-05T04:32:35;24.85;;;7.25;;
32705;SDS011;19094;50.972;3.538;2022-07-05T04:35:01;16.20;;;6.72;;
32705;SDS011;19094;50.972;3.538;2022-07-05T04:37:27;14.20;;;7.13;;
32705;SDS011;19094;50.972;3.538;2022-07-05T04:39:52;25.45;;;8.75;;
32705;SDS011;19094;50.972;3.538;2022-07-05T04:42:18;26.08;;;7.68;;
32705;SDS011;19094;50.972;3.538;2022-07-05T04:44:44;20.30;;;7.65;;
32705;SDS011;19094;50.972;3.538;2022-07-05T04:47:11;21.60;;;7.30;;
32705;SDS011;19094;50.972;3.538;2022-07-05T04:49:37;25.20;;;7.65;;
32705;SDS011;19094;50.972;3.538;2022-07-05T04:52:02;25.70;;;7.53;;
32705;SDS011;19094;50.972;3.538;2022-07-05T04:54:29;20.50;;;7.60;;
32705;SDS011;19094;50.972;3.538;2022-07-05T04:56:56;18.77;;;7.30;;
32705;SDS011;19094;50.972;3.538;2022-07-05T04:59:22;16.15;;;7.20;;
32705;SDS011;19094;50.972;3.538;2022-07-05T05:01:47;21.50;;;7.45;;
32705;SDS011;19094;50.972;3.538;2022-07-05T05:04:13;19.30;;;6.88;;
32705;SDS011;19094;50.972;3.538;2022-07-05T05:06:39;20.45;;;8.07;;
32705;SDS011;19094;50.972;3.538;2022-07-05T05:09:05;15.45;;;7.28;;
32705;SDS011;19094;50.972;3.538;2022-07-05T05:11:31;16.42;;;7.28;;
32705;SDS011;19094;50.972;3.538;2022-07-05T05:13:57;22.08;;;6.85;;
32705;SDS011;19094;50.972;3.538;2022-07-05T05:16:23;19.13;;;6.53;;
32705;SDS011;19094;50.972;3.538;2022-07-05T05:18:48;23.17;;;7.18;;
32705;SDS011;19094;50.972;3.538;2022-07-05T05:21:14;17.52;;;6.95;;
32705;SDS011;19094;50.972;3.538;2022-07-05T05:23:43;14.02;;;6.95;;
32705;SDS011;19094;50.972;3.538;2022-07-05T05:26:08;17.45;;;6.60;;
32705;SDS011;19094;50.972;3.538;2022-07-05T05:28:34;22.40;;;7.20;;
32705;SDS011;19094;50.972;3.538;2022-07-05T05:31:01;15.25;;;7.10;;
32705;SDS011;19094;50.972;3.538;2022-07-05T05:33:28;21.67;;;7.75;;
32705;SDS011;19094;50.972;3.538;2022-07-05T05:35:53;22.52;;;7.43;;
32705;SDS011;19094;50.972;3.538;2022-07-05T05:38:19;18.58;;;7.18;;
32705;SDS011;19094;50.972;3.538;2022-07-05T05:40:46;27.85;;;8.05;;
32705;SDS011;19094;50.972;3.538;2022-07-05T05:43:11;20.33;;;7.95;;
32705;SDS011;19094;50.972;3.538;2022-07-05T05:45:40;18.85;;;7.93;;
32705;SDS011;19094;50.972;3.538;2022-07-05T05:48:06;22.80;;;8.02;;
32705;SDS011;19094;50.972;3.538;2022-07-05T05:50:33;23.25;;;7.65;;
32705;SDS011;19094;50.972;3.538;2022-07-05T05:53:00;23.95;;;8.88;;
32705;SDS011;19094;50.972;3.538;2022-07-05T05:55:28;24.00;;;10.73;;
32705;SDS011;19094;50.972;3.538;2022-07-05T05:57:55;22.73;;;7.57;;
32705;SDS011;19094;50.972;3.538;2022-07-05T06:00:22;20.83;;;7.55;;
32705;SDS011;19094;50.972;3.538;2022-07-05T06:02:51;21.88;;;9.40;;
32705;SDS011;19094;50.972;3.538;2022-07-05T06:05:17;22.83;;;9.30;;
32705;SDS011;19094;50.972;3.538;2022-07-05T06:07:50;27.20;;;8.93;;
32705;SDS011;19094;50.972;3.538;2022-07-05T06:12:43;18.73;;;8.05;;
32705;SDS011;19094;50.972;3.538;2022-07-05T06:15:09;18.10;;;8.30;;
32705;SDS011;19094;50.972;3.538;2022-07-05T06:17:36;17.23;;;8.05;;
32705;SDS011;19094;50.972;3.538;2022-07-05T06:20:09;19.95;;;8.25;;
32705;SDS011;19094;50.972;3.538;2022-07-05T06:25:03;16.65;;;8.80;;
32705;SDS011;19094;50.972;3.538;2022-07-05T06:27:29;23.50;;;8.88;;
32705;SDS011;19094;50.972;3.538;2022-07-05T06:29:55;24.15;;;9.75;;
32705;SDS011;19094;50.972;3.538;2022-07-05T06:32:21;20.80;;;9.25;;
32705;SDS011;19094;50.972;3.538;2022-07-05T06:34:47;22.75;;;8.70;;
32705;SDS011;19094;50.972;3.538;2022-07-05T06:37:13;20.52;;;8.45;;
32705;SDS011;19094;50.972;3.538;2022-07-05T06:39:39;21.05;;;8.50;;
32705;SDS011;19094;50.972;3.538;2022-07-05T06:42:05;19.52;;;8.90;;
32705;SDS011;19094;50.972;3.538;2022-07-05T06:44:32;28.42;;;8.77;;
32705;SDS011;19094;50.972;3.538;2022-07-05T06:46:58;21.50;;;8.82;;
32705;SDS011;19094;50.972;3.538;2022-07-05T06:49:24;21.17;;;8.55;;
32705;SDS011;19094;50.972;3.538;2022-07-05T06:51:50;26.98;;;9.65;;
32705;SDS011;19094;50.972;3.538;2022-07-05T06:54:15;19.58;;;8.68;;
32705;SDS011;19094;50.972;3.538;2022-07-05T06:56:42;25.08;;;9.23;;
32705;SDS011;19094;50.972;3.538;2022-07-05T06:59:08;28.30;;;9.50;;
32705;SDS011;19094;50.972;3.538;2022-07-05T07:01:34;31.70;;;10.63;;
32705;SDS011;19094;50.972;3.538;2022-07-05T07:04:00;22.38;;;9.52;;
32705;SDS011;19094;50.972;3.538;2022-07-05T07:06:26;25.30;;;9.88;;
32705;SDS011;19094;50.972;3.538;2022-07-05T07:08:51;33.45;;;9.82;;
32705;SDS011;19094;50.972;3.538;2022-07-05T07:11:36;27.65;;;9.75;;
32705;SDS011;19094;50.972;3.538;2022-07-05T07:14:02;29.35;;;9.57;;
32705;SDS011;19094;50.972;3.538;2022-07-05T07:16:27;33.75;;;9.85;;
32705;SDS011;19094;50.972;3.538;2022-07-05T07:18:54;22.13;;;9.30;;
32705;SDS011;19094;50.972;3.538;2022-07-05T07:21:20;28.13;;;10.60;;
32705;SDS011;19094;50.972;3.538;2022-07-05T07:23:46;31.40;;;11.20;;
32705;SDS011;19094;50.972;3.538;2022-07-05T07:26:12;25.98;;;9.75;;
32705;SDS011;19094;50.972;3.538;2022-07-05T07:28:39;23.63;;;10.40;;
32705;SDS011;19094;50.972;3.538;2022-07-05T07:31:07;30.73;;;11.20;;
32705;SDS011;19094;50.972;3.538;2022-07-05T07:33:34;26.23;;;10.20;;
32705;SDS011;19094;50.972;3.538;2022-07-05T07:36:00;30.88;;;10.57;;
32705;SDS011;19094;50.972;3.538;2022-07-05T07:38:26;25.15;;;10.38;;
32705;SDS011;19094;50.972;3.538;2022-07-05T07:40:52;24.38;;;10.77;;
32705;SDS011;19094;50.972;3.538;2022-07-05T07:43:18;30.80;;;10.45;;
32705;SDS011;19094;50.972;3.538;2022-07-05T07:45:48;21.77;;;10.15;;
32705;SDS011;19094;50.972;3.538;2022-07-05T07:48:15;32.08;;;12.40;;
32705;SDS011;19094;50.972;3.538;2022-07-05T07:50:40;20.85;;;11.05;;
32705;SDS011;19094;50.972;3.538;2022-07-05T07:53:06;32.72;;;11.90;;
32705;SDS011;19094;50.972;3.538;2022-07-05T07:55:32;27.77;;;11.13;;
32705;SDS011;19094;50.972;3.538;2022-07-05T07:57:58;32.90;;;10.77;;
32705;SDS011;19094;50.972;3.538;2022-07-05T08:00:25;22.48;;;10.50;;
32705;SDS011;19094;50.972;3.538;2022-07-05T08:02:50;36.85;;;11.77;;
32705;SDS011;19094;50.972;3.538;2022-07-05T08:05:16;30.75;;;10.63;;
32705;SDS011;19094;50.972;3.538;2022-07-05T08:07:41;19.40;;;9.95;;
32705;SDS011;19094;50.972;3.538;2022-07-05T08:10:07;25.55;;;10.77;;
32705;SDS011;19094;50.972;3.538;2022-07-05T08:12:33;23.15;;;10.07;;
32705;SDS011;19094;50.972;3.538;2022-07-05T08:14:59;23.40;;;10.20;;
32705;SDS011;19094;50.972;3.538;2022-07-05T08:17:26;25.05;;;10.25;;
32705;SDS011;19094;50.972;3.538;2022-07-05T08:19:51;24.15;;;11.05;;
32705;SDS011;19094;50.972;3.538;2022-07-05T08:22:35;21.90;;;9.98;;
32705;SDS011;19094;50.972;3.538;2022-07-05T08:25:02;25.63;;;10.95;;
32705;SDS011;19094;50.972;3.538;2022-07-05T08:27:28;28.80;;;9.73;;
32705;SDS011;19094;50.972;3.538;2022-07-05T08:29:54;24.85;;;9.93;;
32705;SDS011;19094;50.972;3.538;2022-07-05T08:32:19;22.45;;;9.73;;
32705;SDS011;19094;50.972;3.538;2022-07-05T08:34:46;20.55;;;10.43;;
32705;SDS011;19094;50.972;3.538;2022-07-05T08:37:12;19.92;;;10.43;;
32705;SDS011;19094;50.972;3.538;2022-07-05T08:39:38;24.58;;;9.98;;
32705;SDS011;19094;50.972;3.538;2022-07-05T08:42:03;27.23;;;10.98;;
32705;SDS011;19094;50.972;3.538;2022-07-05T08:44:38;29.55;;;9.35;;
32705;SDS011;19094;50.972;3.538;2022-07-05T08:47:05;23.60;;;10.50;;
32705;SDS011;19094;50.972;3.538;2022-07-05T08:49:34;18.15;;;9.95;;
32705;SDS011;19094;50.972;3.538;2022-07-05T08:52:02;21.38;;;9.73;;
32705;SDS011;19094;50.972;3.538;2022-07-05T08:54:30;14.60;;;6.15;;
32705;SDS011;19094;50.972;3.538;2022-07-05T08:56:56;12.52;;;6.10;;
32705;SDS011;19094;50.972;3.538;2022-07-05T08:59:22;14.10;;;6.05;;
32705;SDS011;19094;50.972;3.538;2022-07-05T09:01:48;12.57;;;6.13;;
32705;SDS011;19094;50.972;3.538;2022-07-05T09:04:16;16.63;;;7.45;;
32705;SDS011;19094;50.972;3.538;2022-07-05T09:06:42;14.57;;;7.25;;
32705;SDS011;19094;50.972;3.538;2022-07-05T09:09:12;13.55;;;7.40;;
32705;SDS011;19094;50.972;3.538;2022-07-05T09:11:42;16.67;;;6.95;;
32705;SDS011;19094;50.972;3.538;2022-07-05T09:14:21;13.00;;;6.30;;
32705;SDS011;19094;50.972;3.538;2022-07-05T09:16:48;17.95;;;6.43;;
32705;SDS011;19094;50.972;3.538;2022-07-05T09:19:14;14.98;;;5.70;;
32705;SDS011;19094;50.972;3.538;2022-07-05T09:21:40;14.63;;;6.60;;
32705;SDS011;19094;50.972;3.538;2022-07-05T09:24:07;16.10;;;7.75;;
32705;SDS011;19094;50.972;3.538;2022-07-05T09:29:01;11.48;;;5.97;;
32705;SDS011;19094;50.972;3.538;2022-07-05T09:31:29;12.55;;;6.00;;
32705;SDS011;19094;50.972;3.538;2022-07-05T09:34:04;12.32;;;6.20;;
32705;SDS011;19094;50.972;3.538;2022-07-05T09:37:04;11.10;;;6.80;;
32705;SDS011;19094;50.972;3.538;2022-07-05T09:42:11;7.13;;;4.15;;
32705;SDS011;19094;50.972;3.538;2022-07-05T09:44:47;12.43;;;4.65;;
32705;SDS011;19094;50.972;3.538;2022-07-05T09:47:19;11.13;;;4.53;;
32705;SDS011;19094;50.972;3.538;2022-07-05T09:49:53;22.13;;;4.13;;
32705;SDS011;19094;50.972;3.538;2022-07-05T09:55:10;8.60;;;3.50;;
32705;SDS011;19094;50.972;3.538;2022-07-05T09:57:44;8.15;;;4.35;;
32705;SDS011;19094;50.972;3.538;2022-07-05T10:00:15;9.32;;;4.20;;
32705;SDS011;19094;50.972;3.538;2022-07-05T10:02:43;9.50;;;3.67;;
32705;SDS011;19094;50.972;3.538;2022-07-05T10:05:23;8.90;;;3.38;;
32705;SDS011;19094;50.972;3.538;2022-07-05T10:07:58;8.10;;;3.38;;
32705;SDS011;19094;50.972;3.538;2022-07-05T10:10:26;9.63;;;3.75;;
32705;SDS011;19094;50.972;3.538;2022-07-05T10:13:01;9.77;;;3.65;;
32705;SDS011;19094;50.972;3.538;2022-07-05T10:15:29;11.40;;;3.15;;
32705;SDS011;19094;50.972;3.538;2022-07-05T10:23:05;13.13;;;2.53;;
32705;SDS011;19094;50.972;3.538;2022-07-05T10:25:36;10.52;;;2.40;;
32705;SDS011;19094;50.972;3.538;2022-07-05T10:28:05;26.65;;;3.28;;
32705;SDS011;19094;50.972;3.538;2022-07-05T10:30:32;6.45;;;2.30;;
32705;SDS011;19094;50.972;3.538;2022-07-05T10:33:02;5.90;;;2.33;;
32705;SDS011;19094;50.972;3.538;2022-07-05T10:35:28;10.73;;;2.47;;
32705;SDS011;19094;50.972;3.538;2022-07-05T10:37:54;4.32;;;2.00;;
32705;SDS011;19094;50.972;3.538;2022-07-05T10:40:21;7.97;;;2.53;;
32705;SDS011;19094;50.972;3.538;2022-07-05T10:42:58;9.18;;;2.10;;
32705;SDS011;19094;50.972;3.538;2022-07-05T10:45:30;5.22;;;2.08;;
32705;SDS011;19094;50.972;3.538;2022-07-05T10:50:59;5.35;;;2.03;;
32705;SDS011;19094;50.972;3.538;2022-07-05T10:58:29;8.40;;;2.03;;
32705;SDS011;19094;50.972;3.538;2022-07-05T11:03:49;6.50;;;1.55;;
32705;SDS011;19094;50.972;3.538;2022-07-05T11:06:21;7.10;;;2.08;;
32705;SDS011;19094;50.972;3.538;2022-07-05T11:11:26;7.63;;;1.50;;
32705;SDS011;19094;50.972;3.538;2022-07-05T11:13:54;9.77;;;1.85;;
32705;SDS011;19094;50.972;3.538;2022-07-05T11:16:30;5.32;;;1.77;;
32705;SDS011;19094;50.972;3.538;2022-07-05T11:19:10;5.15;;;1.77;;
32705;SDS011;19094;50.972;3.538;2022-07-05T11:22:01;5.90;;;1.55;;
32705;SDS011;19094;50.972;3.538;2022-07-05T11:24:35;7.80;;;1.73;;
32705;SDS011;19094;50.972;3.538;2022-07-05T11:27:03;8.32;;;2.08;;
32705;SDS011;19094;50.972;3.538;2022-07-05T11:34:51;5.78;;;1.58;;
32705;SDS011;19094;50.972;3.538;2022-07-05T11:37:22;4.90;;;1.52;;
32705;SDS011;19094;50.972;3.538;2022-07-05T11:42:46;7.22;;;1.40;;
32705;SDS011;19094;50.972;3.538;2022-07-05T11:45:13;17.85;;;2.20;;
32705;SDS011;19094;50.972;3.538;2022-07-05T11:47:41;4.82;;;1.60;;
32705;SDS011;19094;50.972;3.538;2022-07-05T11:50:07;9.60;;;1.63;;
32705;SDS011;19094;50.972;3.538;2022-07-05T11:52:35;4.88;;;1.58;;
32705;SDS011;19094;50.972;3.538;2022-07-05T11:55:19;8.85;;;2.15;;
32705;SDS011;19094;50.972;3.538;2022-07-05T11:57:51;2.95;;;1.58;;
32705;SDS011;19094;50.972;3.538;2022-07-05T12:03:01;3.95;;;1.40;;
32705;SDS011;19094;50.972;3.538;2022-07-05T12:05:35;6.38;;;2.22;;
32705;SDS011;19094;50.972;3.538;2022-07-05T12:08:03;5.80;;;1.38;;
32705;SDS011;19094;50.972;3.538;2022-07-05T12:10:29;5.40;;;1.80;;
32705;SDS011;19094;50.972;3.538;2022-07-05T12:13:15;4.10;;;1.60;;
32705;SDS011;19094;50.972;3.538;2022-07-05T12:15:41;1.63;;;1.20;;
32705;SDS011;19094;50.972;3.538;2022-07-05T12:18:08;4.13;;;1.35;;
32705;SDS011;19094;50.972;3.538;2022-07-05T12:20:35;3.80;;;1.42;;
32705;SDS011;19094;50.972;3.538;2022-07-05T12:23:02;6.13;;;1.50;;
32705;SDS011;19094;50.972;3.538;2022-07-05T12:25:29;5.25;;;2.20;;
32705;SDS011;19094;50.972;3.538;2022-07-05T12:27:57;5.43;;;1.90;;
32705;SDS011;19094;50.972;3.538;2022-07-05T12:30:30;5.00;;;1.38;;
32705;SDS011;19094;50.972;3.538;2022-07-05T12:38:28;2.67;;;1.48;;
32705;SDS011;19094;50.972;3.538;2022-07-05T12:40:58;6.90;;;2.22;;
32705;SDS011;19094;50.972;3.538;2022-07-05T12:43:24;1.98;;;1.25;;
32705;SDS011;19094;50.972;3.538;2022-07-05T12:46:06;2.25;;;1.15;;
32705;SDS011;19094;50.972;3.538;2022-07-05T12:48:40;9.02;;;1.38;;
32705;SDS011;19094;50.972;3.538;2022-07-05T12:51:06;2.90;;;1.40;;
32705;SDS011;19094;50.972;3.538;2022-07-05T12:53:57;3.53;;;1.33;;
32705;SDS011;19094;50.972;3.538;2022-07-05T12:56:40;3.72;;;1.23;;
32705;SDS011;19094;50.972;3.538;2022-07-05T12:59:35;4.18;;;1.50;;
32705;SDS011;19094;50.972;3.538;2022-07-05T13:02:02;3.60;;;1.20;;
32705;SDS011;19094;50.972;3.538;2022-07-05T13:04:29;3.75;;;1.00;;
32705;SDS011;19094;50.972;3.538;2022-07-05T13:06:55;6.10;;;1.75;;
32705;SDS011;19094;50.972;3.538;2022-07-05T13:14:36;3.67;;;1.10;;
32705;SDS011;19094;50.972;3.538;2022-07-05T13:17:08;8.48;;;1.98;;
32705;SDS011;19094;50.972;3.538;2022-07-05T13:19:35;4.75;;;1.30;;
32705;SDS011;19094;50.972;3.538;2022-07-05T13:22:03;1.40;;;1.20;;
32705;SDS011;19094;50.972;3.538;2022-07-05T13:24:30;2.65;;;1.25;;
32705;SDS011;19094;50.972;3.538;2022-07-05T13:26:56;4.35;;;1.60;;
32705;SDS011;19094;50.972;3.538;2022-07-05T13:29:22;7.93;;;1.20;;
32705;SDS011;19094;50.972;3.538;2022-07-05T13:31:49;2.20;;;1.30;;
32705;SDS011;19094;50.972;3.538;2022-07-05T13:34:15;4.57;;;1.40;;
32705;SDS011;19094;50.972;3.538;2022-07-05T13:36:41;5.25;;;2.20;;
32705;SDS011;19094;50.972;3.538;2022-07-05T13:39:08;4.07;;;1.15;;
32705;SDS011;19094;50.972;3.538;2022-07-05T13:41:33;4.93;;;1.23;;
32705;SDS011;19094;50.972;3.538;2022-07-05T13:43:59;6.03;;;1.38;;
32705;SDS011;19094;50.972;3.538;2022-07-05T13:46:26;6.57;;;1.35;;
32705;SDS011;19094;50.972;3.538;2022-07-05T13:48:52;3.83;;;1.23;;
32705;SDS011;19094;50.972;3.538;2022-07-05T13:51:18;2.22;;;1.20;;
32705;SDS011;19094;50.972;3.538;2022-07-05T13:53:44;6.45;;;1.20;;
32705;SDS011;19094;50.972;3.538;2022-07-05T13:56:10;2.10;;;1.00;;
32705;SDS011;19094;50.972;3.538;2022-07-05T13:58:35;7.07;;;1.33;;
32705;SDS011;19094;50.972;3.538;2022-07-05T14:01:02;2.58;;;1.05;;
32705;SDS011;19094;50.972;3.538;2022-07-05T14:03:28;1.27;;;0.95;;
32705;SDS011;19094;50.972;3.538;2022-07-05T14:05:54;3.38;;;0.95;;
32705;SDS011;19094;50.972;3.538;2022-07-05T14:08:21;2.15;;;1.20;;
32705;SDS011;19094;50.972;3.538;2022-07-05T14:10:48;9.25;;;1.20;;
32705;SDS011;19094;50.972;3.538;2022-07-05T14:13:19;5.45;;;1.27;;
32705;SDS011;19094;50.972;3.538;2022-07-05T14:15:47;1.52;;;1.05;;
32705;SDS011;19094;50.972;3.538;2022-07-05T14:18:13;4.18;;;1.20;;
32705;SDS011;19094;50.972;3.538;2022-07-05T14:20:41;2.15;;;1.10;;
32705;SDS011;19094;50.972;3.538;2022-07-05T14:23:07;1.73;;;1.00;;
32705;SDS011;19094;50.972;3.538;2022-07-05T14:25:34;2.85;;;1.00;;
32705;SDS011;19094;50.972;3.538;2022-07-05T14:28:01;3.40;;;1.30;;
32705;SDS011;19094;50.972;3.538;2022-07-05T14:30:28;1.35;;;0.80;;
32705;SDS011;19094;50.972;3.538;2022-07-05T14:32:54;4.00;;;1.20;;
32705;SDS011;19094;50.972;3.538;2022-07-05T14:35:19;3.85;;;0.82;;
32705;SDS011;19094;50.972;3.538;2022-07-05T14:37:45;1.40;;;0.85;;
32705;SDS011;19094;50.972;3.538;2022-07-05T14:40:11;3.97;;;1.20;;
32705;SDS011;19094;50.972;3.538;2022-07-05T14:42:37;2.72;;;1.08;;
32705;SDS011;19094;50.972;3.538;2022-07-05T14:45:03;3.03;;;0.90;;
32705;SDS011;19094;50.972;3.538;2022-07-05T14:47:32;3.03;;;0.82;;
32705;SDS011;19094;50.972;3.538;2022-07-05T14:49:58;4.72;;;1.40;;
32705;SDS011;19094;50.972;3.538;2022-07-05T14:52:23;2.15;;;1.00;;
32705;SDS011;19094;50.972;3.538;2022-07-05T14:54:50;7.00;;;1.65;;
32705;SDS011;19094;50.972;3.538;2022-07-05T14:57:16;2.53;;;1.10;;
32705;SDS011;19094;50.972;3.538;2022-07-05T14:59:43;4.63;;;1.10;;
32705;SDS011;19094;50.972;3.538;2022-07-05T15:02:08;6.47;;;1.40;;
32705;SDS011;19094;50.972;3.538;2022-07-05T15:04:36;3.55;;;1.02;;
32705;SDS011;19094;50.972;3.538;2022-07-05T15:07:03;11.50;;;2.67;;
32705;SDS011;19094;50.972;3.538;2022-07-05T15:09:29;7.63;;;1.33;;
32705;SDS011;19094;50.972;3.538;2022-07-05T15:11:55;4.03;;;1.35;;
32705;SDS011;19094;50.972;3.538;2022-07-05T15:14:20;3.67;;;1.33;;
32705;SDS011;19094;50.972;3.538;2022-07-05T15:16:46;3.75;;;1.38;;
32705;SDS011;19094;50.972;3.538;2022-07-05T15:19:12;4.95;;;1.27;;
32705;SDS011;19094;50.972;3.538;2022-07-05T15:21:38;1.83;;;1.17;;
32705;SDS011;19094;50.972;3.538;2022-07-05T15:24:05;3.83;;;1.48;;
32705;SDS011;19094;50.972;3.538;2022-07-05T15:26:31;5.10;;;1.13;;
32705;SDS011;19094;50.972;3.538;2022-07-05T15:29:02;6.25;;;1.50;;
32705;SDS011;19094;50.972;3.538;2022-07-05T15:31:30;0.90;;;0.82;;
32705;SDS011;19094;50.972;3.538;2022-07-05T15:33:56;2.85;;;1.10;;
32705;SDS011;19094;50.972;3.538;2022-07-05T15:36:25;3.58;;;1.20;;
32705;SDS011;19094;50.972;3.538;2022-07-05T15:38:52;1.92;;;1.20;;